TXG606 TKPK-MDSD
Flight info
| Callsign | TXG606 |
|---|---|
| Flight time | N/A |
| Altitude | 34000 |
| Route | UDGEL1 GABAR DCT GESSO L349 SATOE |
| Aircraft | B738/M-SDE2E3FGHIRWXY/LB1 |
Departure
| Time | N/A |
|---|---|
| Airport | Robert L. Bradshaw International Airport (TKPK) |
Arrival
| Time | 2026-05-05 15:22 |
|---|---|
| Airport | Las Américas International Airport (MDSD) |
| Time | Latitude | Longitude | Altitude | Speed | Heading |
|---|---|---|---|---|---|
| 2026-05-05 14:51 | 17.61059 | -67.23938 | 32088 ft | 442 kts | 274° |
| 2026-05-05 14:52 | 17.61547 | -67.30365 | 32090 ft | 442 kts | 274° |
| 2026-05-05 14:52 | 17.62033 | -67.36798 | 32087 ft | 442 kts | 274° |
| 2026-05-05 14:53 | 17.62517 | -67.43219 | 32089 ft | 442 kts | 274° |
| 2026-05-05 14:53 | 17.62998 | -67.49635 | 32087 ft | 442 kts | 274° |
| 2026-05-05 14:54 | 17.63475 | -67.56027 | 32087 ft | 441 kts | 274° |
| 2026-05-05 14:54 | 17.63954 | -67.62484 | 32090 ft | 441 kts | 274° |
| 2026-05-05 14:55 | 17.64425 | -67.68845 | 32092 ft | 441 kts | 274° |
| 2026-05-05 14:55 | 17.64898 | -67.75273 | 32090 ft | 441 kts | 274° |
| 2026-05-05 14:56 | 17.65369 | -67.81694 | 32087 ft | 441 kts | 274° |
| 2026-05-05 14:56 | 17.65838 | -67.88109 | 32087 ft | 441 kts | 274° |
| 2026-05-05 14:57 | 17.66305 | -67.94529 | 32083 ft | 441 kts | 274° |
| 2026-05-05 14:57 | 17.67475 | -68.00838 | 32093 ft | 442 kts | 288° |
| 2026-05-05 14:58 | 17.70206 | -68.06608 | 32097 ft | 443 kts | 298° |
| 2026-05-05 14:58 | 17.73313 | -68.12197 | 32090 ft | 443 kts | 299° |
| 2026-05-05 14:59 | 17.76384 | -68.17758 | 31655 ft | 448 kts | 298° |
| 2026-05-05 14:59 | 17.77930 | -68.20579 | 31017 ft | 446 kts | 298° |
| 2026-05-05 14:59 | 17.79485 | -68.23428 | 30500 ft | 441 kts | 298° |
| 2026-05-05 15:00 | 17.81003 | -68.26214 | 29929 ft | 438 kts | 298° |
| 2026-05-05 15:00 | 17.82000 | -68.28047 | 29511 ft | 435 kts | 298° |
| 2026-05-05 15:00 | 17.83973 | -68.31675 | 28750 ft | 429 kts | 298° |
| 2026-05-05 15:00 | 17.85445 | -68.34383 | 28185 ft | 425 kts | 298° |
| 2026-05-05 15:01 | 17.86900 | -68.37061 | 27632 ft | 421 kts | 299° |
| 2026-05-05 15:01 | 17.88344 | -68.39719 | 27098 ft | 417 kts | 299° |
| 2026-05-05 15:01 | 17.89777 | -68.42359 | 26561 ft | 413 kts | 299° |
| 2026-05-05 15:01 | 17.91193 | -68.44968 | 26033 ft | 410 kts | 299° |
| 2026-05-05 15:02 | 17.92593 | -68.47550 | 25494 ft | 407 kts | 299° |
| 2026-05-05 15:02 | 17.93989 | -68.50123 | 24960 ft | 405 kts | 299° |
| 2026-05-05 15:02 | 17.95378 | -68.52685 | 24424 ft | 403 kts | 300° |
| 2026-05-05 15:02 | 17.96766 | -68.55247 | 23898 ft | 401 kts | 300° |
| 2026-05-05 15:03 | 17.98140 | -68.57783 | 23293 ft | 399 kts | 300° |
| 2026-05-05 15:03 | 17.99505 | -68.60303 | 22731 ft | 395 kts | 299° |
| 2026-05-05 15:03 | 18.00857 | -68.62801 | 22188 ft | 392 kts | 299° |
| 2026-05-05 15:03 | 18.02201 | -68.65284 | 21665 ft | 388 kts | 299° |
| 2026-05-05 15:04 | 18.03523 | -68.67728 | 21154 ft | 384 kts | 299° |
| 2026-05-05 15:04 | 18.04841 | -68.70164 | 20651 ft | 381 kts | 299° |
| 2026-05-05 15:04 | 18.06146 | -68.72578 | 20153 ft | 377 kts | 298° |
| 2026-05-05 15:04 | 18.07438 | -68.74969 | 19646 ft | 375 kts | 298° |
| 2026-05-05 15:05 | 18.09998 | -68.79710 | 18632 ft | 370 kts | 298° |
| 2026-05-05 15:05 | 18.11260 | -68.82048 | 18110 ft | 369 kts | 298° |
| 2026-05-05 15:05 | 18.12525 | -68.84393 | 17577 ft | 366 kts | 298° |
| 2026-05-05 15:06 | 18.13758 | -68.86679 | 17075 ft | 363 kts | 298° |
| 2026-05-05 15:06 | 18.15003 | -68.88989 | 16575 ft | 360 kts | 298° |
| 2026-05-05 15:06 | 18.16231 | -68.91269 | 16104 ft | 358 kts | 298° |
| 2026-05-05 15:06 | 18.17454 | -68.93539 | 15606 ft | 356 kts | 298° |
| 2026-05-05 15:07 | 18.18677 | -68.95812 | 15109 ft | 356 kts | 298° |
| 2026-05-05 15:07 | 18.19892 | -68.98069 | 14595 ft | 355 kts | 298° |
| 2026-05-05 15:07 | 18.21113 | -69.00339 | 14028 ft | 357 kts | 298° |
| 2026-05-05 15:07 | 18.22331 | -69.02604 | 13473 ft | 358 kts | 298° |
| 2026-05-05 15:08 | 18.23558 | -69.04884 | 12957 ft | 356 kts | 298° |
| 2026-05-05 15:08 | 18.24778 | -69.07154 | 12444 ft | 355 kts | 298° |
| 2026-05-05 15:08 | 18.25987 | -69.09403 | 11942 ft | 353 kts | 298° |
| 2026-05-05 15:08 | 18.27203 | -69.11667 | 11449 ft | 352 kts | 298° |
| 2026-05-05 15:09 | 18.28407 | -69.13910 | 10955 ft | 351 kts | 298° |
| 2026-05-05 15:09 | 18.29601 | -69.16134 | 10678 ft | 344 kts | 298° |
| 2026-05-05 15:09 | 18.30758 | -69.18290 | 10478 ft | 335 kts | 298° |
| 2026-05-05 15:09 | 18.31889 | -69.20395 | 10324 ft | 324 kts | 298° |
| 2026-05-05 15:10 | 18.32984 | -69.22436 | 10187 ft | 315 kts | 298° |
| 2026-05-05 15:10 | 18.34045 | -69.24415 | 10051 ft | 306 kts | 298° |
| 2026-05-05 15:10 | 18.35082 | -69.26351 | 9767 ft | 303 kts | 298° |
| 2026-05-05 15:10 | 18.36101 | -69.28255 | 9444 ft | 302 kts | 298° |
| 2026-05-05 15:11 | 18.37140 | -69.30196 | 9111 ft | 300 kts | 298° |
| 2026-05-05 15:11 | 18.38164 | -69.32110 | 8773 ft | 300 kts | 298° |
| 2026-05-05 15:11 | 18.39165 | -69.33980 | 8458 ft | 299 kts | 298° |
| 2026-05-05 15:11 | 18.40199 | -69.35913 | 8104 ft | 299 kts | 298° |
| 2026-05-05 15:12 | 18.41219 | -69.37821 | 7766 ft | 299 kts | 298° |
| 2026-05-05 15:12 | 18.42238 | -69.39727 | 7425 ft | 298 kts | 298° |
| 2026-05-05 15:12 | 18.43257 | -69.41636 | 7094 ft | 300 kts | 298° |
| 2026-05-05 15:12 | 18.44288 | -69.43564 | 6739 ft | 304 kts | 298° |
| 2026-05-05 15:13 | 18.45322 | -69.45501 | 6387 ft | 305 kts | 299° |
| 2026-05-05 15:13 | 18.46357 | -69.47436 | 6159 ft | 303 kts | 298° |
| 2026-05-05 15:13 | 18.47368 | -69.49326 | 6021 ft | 286 kts | 298° |
| 2026-05-05 15:13 | 18.48336 | -69.51122 | 5687 ft | 279 kts | 302° |
| 2026-05-05 15:14 | 18.49705 | -69.52522 | 5294 ft | 275 kts | 331° |
| 2026-05-05 15:14 | 18.51380 | -69.53439 | 4951 ft | 269 kts | 334° |
| 2026-05-05 15:14 | 18.53044 | -69.54322 | 4595 ft | 267 kts | 335° |
| 2026-05-05 15:14 | 18.54693 | -69.55193 | 4218 ft | 263 kts | 334° |
| 2026-05-05 15:15 | 18.56326 | -69.56054 | 3841 ft | 261 kts | 335° |
| 2026-05-05 15:15 | 18.57948 | -69.56913 | 3483 ft | 260 kts | 335° |
| 2026-05-05 15:15 | 18.59566 | -69.57762 | 3117 ft | 258 kts | 335° |
| 2026-05-05 15:15 | 18.61143 | -69.58588 | 3041 ft | 248 kts | 335° |
| 2026-05-05 15:16 | 18.62564 | -69.59557 | 2989 ft | 241 kts | 315° |
| 2026-05-05 15:16 | 18.63334 | -69.61080 | 3013 ft | 236 kts | 275° |
| 2026-05-05 15:16 | 18.63286 | -69.62793 | 3005 ft | 234 kts | 262° |
| 2026-05-05 15:16 | 18.63145 | -69.64478 | 2989 ft | 226 kts | 262° |
| 2026-05-05 15:17 | 18.62916 | -69.66046 | 2981 ft | 207 kts | 248° |
| 2026-05-05 15:17 | 18.62452 | -69.67459 | 3006 ft | 204 kts | 247° |
| 2026-05-05 15:17 | 18.61996 | -69.68860 | 3004 ft | 205 kts | 248° |
| 2026-05-05 15:17 | 18.61553 | -69.70283 | 3008 ft | 203 kts | 248° |
| 2026-05-05 15:18 | 18.61107 | -69.71688 | 2987 ft | 200 kts | 245° |
| 2026-05-05 15:18 | 18.60278 | -69.72793 | 3006 ft | 190 kts | 206° |
| 2026-05-05 15:18 | 18.59037 | -69.72963 | 3032 ft | 178 kts | 161° |
| 2026-05-05 15:18 | 18.57860 | -69.72519 | 2962 ft | 183 kts | 158° |
| 2026-05-05 15:19 | 18.56663 | -69.72052 | 2762 ft | 182 kts | 158° |
| 2026-05-05 15:19 | 18.55505 | -69.71604 | 2533 ft | 173 kts | 158° |
| 2026-05-05 15:19 | 18.54369 | -69.71161 | 2144 ft | 175 kts | 157° |
| 2026-05-05 15:19 | 18.53257 | -69.70732 | 1845 ft | 170 kts | 158° |
| 2026-05-05 15:20 | 18.52155 | -69.70279 | 1635 ft | 168 kts | 155° |
| 2026-05-05 15:20 | 18.51124 | -69.69833 | 1433 ft | 154 kts | 157° |
| 2026-05-05 15:20 | 18.50194 | -69.69454 | 1264 ft | 136 kts | 160° |
| 2026-05-05 15:20 | 18.49302 | -69.69138 | 1041 ft | 135 kts | 160° |
| 2026-05-05 15:21 | 18.48405 | -69.68862 | 985 ft | 134 kts | 159° |
| 2026-05-05 15:21 | 18.47521 | -69.68558 | 815 ft | 132 kts | 159° |
| 2026-05-05 15:21 | 18.46652 | -69.68225 | 697 ft | 135 kts | 156° |
| 2026-05-05 15:21 | 18.45748 | -69.67878 | 530 ft | 140 kts | 160° |
| 2026-05-05 15:22 | 18.44822 | -69.67573 | 308 ft | 138 kts | 158° |
| 2026-05-05 15:22 | 18.43934 | -69.67239 | 141 ft | 133 kts | 158° |
| 2026-05-05 15:22 | 18.43100 | -69.66931 | 79 ft | 117 kts | 159° |
| 2026-05-05 15:22 | 18.42600 | -69.66754 | 76 ft | 43 kts | 161° |
| 2026-05-05 15:23 | 18.42353 | -69.66663 | 75 ft | 33 kts | 161° |
| 2026-05-05 15:23 | 18.42210 | -69.66678 | 70 ft | 16 kts | 241° |
| 2026-05-05 15:23 | 18.42234 | -69.66770 | 64 ft | 14 kts | 311° |
| 2026-05-05 15:23 | 18.42304 | -69.66840 | 69 ft | 14 kts | 334° |
| 2026-05-05 15:24 | 18.42393 | -69.66876 | 65 ft | 13 kts | 340° |
| 2026-05-05 15:24 | 18.42479 | -69.66909 | 69 ft | 13 kts | 340° |
| 2026-05-05 15:24 | 18.42593 | -69.66952 | 67 ft | 27 kts | 340° |
| 2026-05-05 15:24 | 18.42739 | -69.67006 | 69 ft | 40 kts | 341° |
| 2026-05-05 15:25 | 18.42940 | -69.67127 | 68 ft | 30 kts | 282° |
| 2026-05-05 15:25 | 18.42966 | -69.67337 | 68 ft | 28 kts | 280° |
| 2026-05-05 15:25 | 18.43099 | -69.67456 | 68 ft | 24 kts | 338° |
| 2026-05-05 15:25 | 18.43252 | -69.67513 | 64 ft | 23 kts | 339° |
| 2026-05-05 15:26 | 18.43404 | -69.67529 | 61 ft | 22 kts | 348° |
| 2026-05-05 15:26 | 18.43477 | -69.67549 | 68 ft | 7 kts | 341° |
| 2026-05-05 15:26 | 18.43521 | -69.67565 | 68 ft | 7 kts | 341° |
| 2026-05-05 15:26 | 18.43568 | -69.67585 | 68 ft | 9 kts | 338° |
| 2026-05-05 15:27 | 18.43625 | -69.67607 | 68 ft | 9 kts | 340° |
| 2026-05-05 15:27 | 18.43643 | -69.67649 | 65 ft | 7 kts | 256° |
| 2026-05-05 15:27 | 18.43633 | -69.67679 | 59 ft | 0 kts | 250° |
| 2026-05-05 15:27 | 18.43630 | -69.67687 | 62 ft | 0 kts | 250° |